Time;durP1;ratioP1;P1;durP2;ratioP2;P2;SDS_P1;SDS_P2;PMS_P1;PMS_P2;Temp;Humidity;BMP_temperature;BMP_pressure;BME280_temperature;BME280_humidity;BME280_pressure;Samples;Min_cycle;Max_cycle;Signal;HPM_P1;HPM_P2
2022/03/10 00:00:29;;;;;;;32.37;12.50;;;;;;;;;;4998491;28;20565;-80
2022/03/10 00:02:57;;;;;;;33.63;11.70;;;;;;;;;;4997637;28;20484;-80
2022/03/10 00:05:24;;;;;;;29.57;11.57;;;;;;;;;;4999125;28;21122;-80
2022/03/10 00:07:51;;;;;;;27.20;11.57;;;;;;;;;;4999959;28;20455;-80
2022/03/10 00:10:19;;;;;;;33.63;12.33;;;;;;;;;;4999312;28;20468;-81
2022/03/10 00:12:50;;;;;;;34.23;12.97;;;;;;;;;;5001443;28;20487;-78
2022/03/10 00:15:18;;;;;;;36.50;13.10;;;;;;;;;;4995843;28;20459;-79
2022/03/10 00:17:45;;;;;;;30.30;12.30;;;;;;;;;;4994413;28;20938;-80
2022/03/10 00:20:13;;;;;;;30.00;11.10;;;;;;;;;;5002317;28;20462;-80
2022/03/10 00:22:44;;;;;;;32.47;12.53;;;;;;;;;;4997168;28;20547;-80
2022/03/10 00:25:11;;;;;;;30.43;12.33;;;;;;;;;;5000258;28;20487;-79
2022/03/10 00:27:38;;;;;;;32.47;12.13;;;;;;;;;;5000645;28;20538;-79
2022/03/10 00:30:07;;;;;;;31.03;11.87;;;;;;;;;;4999416;28;20543;-79
2022/03/10 00:32:34;;;;;;;29.70;12.47;;;;;;;;;;4994106;28;20494;-79
2022/03/10 00:35:01;;;;;;;29.53;11.63;;;;;;;;;;4993317;28;20483;-79
2022/03/10 00:37:30;;;;;;;28.00;11.50;;;;;;;;;;4998157;28;21736;-79
2022/03/10 00:39:57;;;;;;;32.20;11.43;;;;;;;;;;5004305;28;20550;-79
2022/03/10 00:42:24;;;;;;;28.10;11.10;;;;;;;;;;4999610;28;20542;-79
2022/03/10 00:44:51;;;;;;;26.33;10.50;;;;;;;;;;4999304;28;21262;-80
2022/03/10 00:47:19;;;;;;;36.43;11.50;;;;;;;;;;4999745;28;20482;-80
2022/03/10 00:49:46;;;;;;;33.50;12.27;;;;;;;;;;4998368;28;20482;-80
2022/03/10 00:52:13;;;;;;;36.87;11.50;;;;;;;;;;5001507;28;20666;-80
2022/03/10 00:54:42;;;;;;;32.27;11.70;;;;;;;;;;5005391;28;20490;-80
2022/03/10 00:57:09;;;;;;;33.03;11.80;;;;;;;;;;4999642;28;20988;-80
2022/03/10 00:59:36;;;;;;;26.23;11.63;;;;;;;;;;5003862;28;20443;-80
2022/03/10 01:02:04;;;;;;;29.03;11.33;;;;;;;;;;5002624;28;20457;-80
2022/03/10 01:04:31;;;;;;;28.87;11.97;;;;;;;;;;5001973;28;21025;-80
2022/03/10 01:06:58;;;;;;;29.77;11.20;;;;;;;;;;5006686;28;20955;-80
2022/03/10 01:09:26;;;;;;;31.20;11.60;;;;;;;;;;5000631;28;21258;-79
2022/03/10 01:11:54;;;;;;;30.73;11.73;;;;;;;;;;5002037;28;20482;-80
2022/03/10 01:14:22;;;;;;;33.57;12.40;;;;;;;;;;5002846;28;20859;-80
2022/03/10 01:16:49;;;;;;;30.33;10.90;;;;;;;;;;5002886;28;20466;-80
2022/03/10 01:19:16;;;;;;;35.30;11.90;;;;;;;;;;5004459;28;20454;-80
2022/03/10 01:21:44;;;;;;;28.87;12.17;;;;;;;;;;5003445;28;20456;-81
2022/03/10 01:24:12;;;;;;;31.97;11.50;;;;;;;;;;5001106;28;20974;-80
2022/03/10 01:26:39;;;;;;;30.93;11.73;;;;;;;;;;5004013;28;20452;-79
2022/03/10 01:29:07;;;;;;;27.03;11.03;;;;;;;;;;5001613;28;20460;-81
2022/03/10 01:31:35;;;;;;;26.93;11.50;;;;;;;;;;5000914;28;20447;-80
2022/03/10 01:34:02;;;;;;;29.27;11.40;;;;;;;;;;5000956;28;20515;-80
2022/03/10 01:36:30;;;;;;;28.93;11.13;;;;;;;;;;5003785;28;20469;-80
2022/03/10 01:38:57;;;;;;;26.27;11.03;;;;;;;;;;5002375;28;20471;-79
2022/03/10 01:41:24;;;;;;;27.03;10.53;;;;;;;;;;5003181;28;20629;-80
2022/03/10 01:43:57;;;;;;;28.87;11.57;;;;;;;;;;5004134;28;20472;-80
2022/03/10 01:46:27;;;;;;;29.03;11.40;;;;;;;;;;5001228;28;20958;-80
2022/03/10 01:48:54;;;;;;;29.87;11.13;;;;;;;;;;5001714;28;20471;-80
2022/03/10 01:51:21;;;;;;;27.60;11.40;;;;;;;;;;5002371;28;20474;-81
2022/03/10 01:53:50;;;;;;;25.27;10.50;;;;;;;;;;4997301;28;20487;-81
2022/03/10 01:56:18;;;;;;;33.93;12.43;;;;;;;;;;4998808;28;20966;-80
2022/03/10 01:58:45;;;;;;;33.47;11.27;;;;;;;;;;5005532;28;20552;-80
2022/03/10 02:01:12;;;;;;;32.97;11.43;;;;;;;;;;5003514;28;20472;-80
2022/03/10 02:03:41;;;;;;;26.30;10.80;;;;;;;;;;5001246;28;20922;-81
2022/03/10 02:06:08;;;;;;;28.57;11.03;;;;;;;;;;4996568;28;20907;-80
2022/03/10 02:11:20;;;;;;;29.97;11.60;;;;;;;;;;4997548;28;21237;-81
2022/03/10 02:13:47;;;;;;;29.57;10.73;;;;;;;;;;4997768;28;20499;-80
2022/03/10 02:19:02;;;;;;;29.47;11.33;;;;;;;;;;4969723;28;20438;-80
2022/03/10 02:21:29;;;;;;;33.27;11.20;;;;;;;;;;5001271;28;20518;-81
2022/03/10 02:23:57;;;;;;;30.70;11.27;;;;;;;;;;5001291;28;20488;-81
2022/03/10 02:26:24;;;;;;;32.57;12.07;;;;;;;;;;4998178;28;20988;-81
2022/03/10 02:28:52;;;;;;;32.80;11.77;;;;;;;;;;5002097;28;20451;-80
2022/03/10 02:31:19;;;;;;;33.43;12.10;;;;;;;;;;5001458;28;20480;-80
2022/03/10 02:33:46;;;;;;;29.13;11.13;;;;;;;;;;5004195;28;20519;-81
2022/03/10 02:36:14;;;;;;;30.23;11.63;;;;;;;;;;5003259;28;20508;-80
2022/03/10 02:38:42;;;;;;;30.23;11.07;;;;;;;;;;5003316;28;20456;-79
2022/03/10 02:41:10;;;;;;;33.87;12.03;;;;;;;;;;5002532;28;20462;-80
2022/03/10 02:43:37;;;;;;;27.10;11.13;;;;;;;;;;5004970;28;20538;-79
2022/03/10 02:46:05;;;;;;;29.30;11.67;;;;;;;;;;5001814;28;20534;-79
2022/03/10 02:48:32;;;;;;;30.70;10.77;;;;;;;;;;5003706;28;20923;-80
2022/03/10 02:50:59;;;;;;;29.27;11.10;;;;;;;;;;5001228;28;20456;-80
2022/03/10 02:53:26;;;;;;;31.70;11.73;;;;;;;;;;5000723;28;20492;-80
2022/03/10 02:55:53;;;;;;;34.97;12.07;;;;;;;;;;5002040;28;20667;-80
2022/03/10 02:58:22;;;;;;;29.60;11.67;;;;;;;;;;5003298;28;20494;-80
2022/03/10 03:00:49;;;;;;;31.37;10.50;;;;;;;;;;4997467;28;20462;-80
2022/03/10 03:03:17;;;;;;;34.07;10.73;;;;;;;;;;5003916;28;20482;-80
2022/03/10 03:05:44;;;;;;;31.90;10.60;;;;;;;;;;4998106;28;20459;-80
2022/03/10 03:08:11;;;;;;;27.37;9.83;;;;;;;;;;4998643;28;20443;-80
2022/03/10 03:10:38;;;;;;;31.60;11.43;;;;;;;;;;4996598;28;20449;-79
2022/03/10 03:13:06;;;;;;;28.77;10.17;;;;;;;;;;4997581;28;20502;-80
2022/03/10 03:15:35;;;;;;;22.87;9.87;;;;;;;;;;4997853;28;20526;-80
2022/03/10 03:18:02;;;;;;;27.33;10.20;;;;;;;;;;4998645;28;20460;-79
2022/03/10 03:20:29;;;;;;;29.53;9.77;;;;;;;;;;5001196;28;20899;-79
2022/03/10 03:22:56;;;;;;;25.50;9.70;;;;;;;;;;5003571;28;20498;-79
2022/03/10 03:25:23;;;;;;;21.90;9.50;;;;;;;;;;5003526;28;20478;-79
2022/03/10 03:27:51;;;;;;;25.73;9.57;;;;;;;;;;5005382;28;20459;-80
2022/03/10 03:30:18;;;;;;;25.63;9.97;;;;;;;;;;4997562;28;20555;-80
2022/03/10 03:32:47;;;;;;;24.57;9.93;;;;;;;;;;5004949;28;20557;-81
2022/03/10 03:35:15;;;;;;;26.17;9.50;;;;;;;;;;5000033;28;20491;-81
2022/03/10 03:37:42;;;;;;;26.10;9.53;;;;;;;;;;5001073;28;20910;-79
2022/03/10 03:40:10;;;;;;;26.00;9.53;;;;;;;;;;4999557;28;20819;-80
2022/03/10 03:42:37;;;;;;;25.17;8.87;;;;;;;;;;5004167;28;20474;-81
2022/03/10 03:45:05;;;;;;;21.93;9.50;;;;;;;;;;4997600;28;20543;-80
2022/03/10 03:47:32;;;;;;;29.87;9.77;;;;;;;;;;4999498;28;20445;-80
2022/03/10 03:50:01;;;;;;;28.40;9.77;;;;;;;;;;5001940;28;20486;-79
2022/03/10 03:52:28;;;;;;;33.20;10.20;;;;;;;;;;5003698;28;20463;-80
2022/03/10 03:54:55;;;;;;;29.73;10.33;;;;;;;;;;4995655;28;20491;-81
2022/03/10 03:57:22;;;;;;;36.03;9.70;;;;;;;;;;4997656;28;21081;-80
2022/03/10 03:59:49;;;;;;;27.40;10.57;;;;;;;;;;4999467;28;20971;-81
2022/03/10 04:02:16;;;;;;;27.40;10.40;;;;;;;;;;4996623;28;20962;-78
2022/03/10 04:04:44;;;;;;;26.97;10.10;;;;;;;;;;4999911;28;20460;-80
2022/03/10 04:07:12;;;;;;;23.50;9.33;;;;;;;;;;4999860;28;21969;-79
2022/03/10 04:09:39;;;;;;;27.27;10.23;;;;;;;;;;5001663;28;20460;-81
2022/03/10 04:12:07;;;;;;;27.97;10.57;;;;;;;;;;4999810;28;20546;-81
2022/03/10 04:14:34;;;;;;;31.57;10.10;;;;;;;;;;4995070;28;20583;-80
2022/03/10 04:17:02;;;;;;;28.00;10.50;;;;;;;;;;4999058;28;20912;-80
2022/03/10 04:19:30;;;;;;;28.37;9.57;;;;;;;;;;5000257;28;20462;-80
2022/03/10 04:21:57;;;;;;;26.83;9.43;;;;;;;;;;4999204;28;20491;-81
2022/03/10 04:24:26;;;;;;;41.50;10.00;;;;;;;;;;4999398;28;20471;-81
2022/03/10 04:26:53;;;;;;;29.33;9.47;;;;;;;;;;5003531;28;20590;-80
2022/03/10 04:29:20;;;;;;;25.80;9.47;;;;;;;;;;5003124;28;20463;-81
2022/03/10 04:31:48;;;;;;;28.67;10.77;;;;;;;;;;5002489;28;21106;-80
2022/03/10 04:34:15;;;;;;;33.00;9.50;;;;;;;;;;4999929;28;20582;-81
2022/03/10 04:36:42;;;;;;;28.17;10.70;;;;;;;;;;5002623;28;20490;-80
2022/03/10 04:39:09;;;;;;;27.10;9.43;;;;;;;;;;5000090;28;20466;-80
2022/03/10 04:41:38;;;;;;;26.23;9.23;;;;;;;;;;5005363;28;20501;-80
2022/03/10 04:44:05;;;;;;;28.90;10.47;;;;;;;;;;5006177;28;20483;-80
2022/03/10 04:46:32;;;;;;;26.67;11.13;;;;;;;;;;5003745;28;20455;-80
2022/03/10 04:48:59;;;;;;;28.80;10.60;;;;;;;;;;5005338;28;20541;-78
2022/03/10 04:51:26;;;;;;;33.83;10.90;;;;;;;;;;5008170;28;20483;-78
2022/03/10 04:53:54;;;;;;;27.83;9.83;;;;;;;;;;5008820;28;20553;-78
2022/03/10 04:56:21;;;;;;;32.73;9.87;;;;;;;;;;5006383;28;20455;-78
2022/03/10 04:58:50;;;;;;;24.90;9.70;;;;;;;;;;5004225;28;20467;-79
2022/03/10 05:01:17;;;;;;;27.90;10.43;;;;;;;;;;5006078;28;20556;-78
2022/03/10 05:03:44;;;;;;;32.00;9.90;;;;;;;;;;5005027;28;20487;-79
2022/03/10 05:06:11;;;;;;;32.40;11.03;;;;;;;;;;5006259;28;20455;-78
2022/03/10 05:08:39;;;;;;;33.37;11.10;;;;;;;;;;5004617;28;20464;-78
2022/03/10 05:11:06;;;;;;;25.63;9.83;;;;;;;;;;5004701;28;20546;-78
2022/03/10 05:13:33;;;;;;;27.53;9.50;;;;;;;;;;5003956;28;20477;-80
2022/03/10 05:16:02;;;;;;;23.27;9.00;;;;;;;;;;5006246;28;20482;-80
2022/03/10 05:18:29;;;;;;;30.00;10.57;;;;;;;;;;5002658;28;20841;-79
2022/03/10 05:20:56;;;;;;;34.60;11.03;;;;;;;;;;4998910;28;20460;-79
2022/03/10 05:23:23;;;;;;;36.10;11.30;;;;;;;;;;5002647;28;20507;-79
2022/03/10 05:25:50;;;;;;;30.50;10.33;;;;;;;;;;5003886;28;20471;-80
2022/03/10 05:28:18;;;;;;;29.43;10.43;;;;;;;;;;4998372;28;20450;-79
2022/03/10 05:30:47;;;;;;;23.77;9.97;;;;;;;;;;5001862;28;20463;-81
2022/03/10 05:33:16;;;;;;;33.97;11.23;;;;;;;;;;5003866;28;20467;-80
2022/03/10 05:35:43;;;;;;;31.33;11.37;;;;;;;;;;5000555;28;20569;-79
2022/03/10 05:38:10;;;;;;;30.47;10.87;;;;;;;;;;4999200;28;20460;-79
2022/03/10 05:40:37;;;;;;;32.53;11.23;;;;;;;;;;5002819;28;21072;-81
2022/03/10 05:43:04;;;;;;;30.27;10.37;;;;;;;;;;5001635;28;20487;-79
2022/03/10 05:45:32;;;;;;;30.23;11.27;;;;;;;;;;5000476;28;20468;-79
2022/03/10 05:47:59;;;;;;;26.90;10.60;;;;;;;;;;5002930;28;20466;-81
2022/03/10 05:50:28;;;;;;;33.70;10.73;;;;;;;;;;4999883;28;20472;-80
2022/03/10 05:52:57;;;;;;;31.87;10.37;;;;;;;;;;5006311;28;20480;-78
2022/03/10 05:55:26;;;;;;;27.87;11.00;;;;;;;;;;4997915;28;20483;-78
2022/03/10 05:57:53;;;;;;;28.83;10.90;;;;;;;;;;5000003;28;20887;-79
2022/03/10 06:00:20;;;;;;;31.77;10.77;;;;;;;;;;5003177;28;20451;-77
2022/03/10 06:02:47;;;;;;;25.53;9.50;;;;;;;;;;4998401;28;20478;-79
2022/03/10 06:05:15;;;;;;;25.63;10.47;;;;;;;;;;5006391;28;20449;-79
2022/03/10 06:07:43;;;;;;;27.47;10.17;;;;;;;;;;5003548;28;20921;-80
2022/03/10 06:10:11;;;;;;;29.03;9.60;;;;;;;;;;5003425;28;20522;-79
2022/03/10 06:12:38;;;;;;;28.87;10.63;;;;;;;;;;5010330;28;20474;-80
2022/03/10 06:15:07;;;;;;;30.47;9.30;;;;;;;;;;5010280;28;20479;-79
2022/03/10 06:17:34;;;;;;;26.33;10.50;;;;;;;;;;5012722;28;20478;-79
2022/03/10 06:20:02;;;;;;;24.37;9.97;;;;;;;;;;5019973;28;20463;-80
2022/03/10 06:22:30;;;;;;;26.13;10.83;;;;;;;;;;5013798;28;20447;-80
2022/03/10 06:25:04;;;;;;;25.47;10.27;;;;;;;;;;5005999;28;20962;-80
2022/03/10 06:27:32;;;;;;;29.77;11.10;;;;;;;;;;5008697;28;20447;-78
2022/03/10 06:29:59;;;;;;;27.43;10.87;;;;;;;;;;5009090;28;20463;-79
2022/03/10 06:32:26;;;;;;;37.13;12.60;;;;;;;;;;5007218;28;20443;-78
2022/03/10 06:34:56;;;;;;;36.20;12.20;;;;;;;;;;5005268;28;21137;-79
2022/03/10 06:37:23;;;;;;;35.93;11.00;;;;;;;;;;5007363;28;20855;-78
2022/03/10 06:39:50;;;;;;;33.23;11.10;;;;;;;;;;5007568;28;20459;-79
2022/03/10 06:42:19;;;;;;;28.97;10.57;;;;;;;;;;5000785;28;20986;-78
2022/03/10 06:44:46;;;;;;;29.47;11.97;;;;;;;;;;5003508;28;20449;-79
2022/03/10 06:47:13;;;;;;;32.33;11.73;;;;;;;;;;5000377;28;20456;-79
2022/03/10 06:49:40;;;;;;;27.10;10.17;;;;;;;;;;5007994;28;20448;-79
2022/03/10 06:52:09;;;;;;;32.93;11.37;;;;;;;;;;5004455;28;20482;-79
2022/03/10 06:57:21;;;;;;;27.90;10.40;;;;;;;;;;4996918;28;20448;-78
2022/03/10 06:59:48;;;;;;;31.00;10.47;;;;;;;;;;5004156;28;20467;-79
2022/03/10 07:02:18;;;;;;;30.33;9.97;;;;;;;;;;5003935;28;20463;-79
2022/03/10 07:04:45;;;;;;;27.50;9.87;;;;;;;;;;5006480;28;20494;-77
2022/03/10 07:07:12;;;;;;;29.63;10.90;;;;;;;;;;5003157;28;20543;-77
2022/03/10 07:09:41;;;;;;;33.77;11.13;;;;;;;;;;5006363;28;20452;-78
2022/03/10 07:12:09;;;;;;;26.50;10.40;;;;;;;;;;5002454;28;20963;-80
2022/03/10 07:14:37;;;;;;;26.17;10.70;;;;;;;;;;4998305;28;20499;-77
2022/03/10 07:17:05;;;;;;;30.27;11.20;;;;;;;;;;5006062;28;20949;-78
2022/03/10 07:19:32;;;;;;;33.63;11.47;;;;;;;;;;5006283;28;20464;-79
2022/03/10 07:21:59;;;;;;;28.70;10.33;;;;;;;;;;5007012;28;20459;-78
2022/03/10 07:24:26;;;;;;;32.90;12.00;;;;;;;;;;5002251;28;20854;-78
2022/03/10 07:26:53;;;;;;;28.27;11.53;;;;;;;;;;5000610;28;20486;-78
2022/03/10 07:29:21;;;;;;;34.53;13.10;;;;;;;;;;5001606;28;20952;-77
2022/03/10 07:31:49;;;;;;;40.50;14.67;;;;;;;;;;4999841;28;20444;-77
2022/03/10 07:34:17;;;;;;;52.30;17.07;;;;;;;;;;5002525;28;20483;-78
2022/03/10 07:36:44;;;;;;;39.93;15.50;;;;;;;;;;5004515;28;20487;-77
2022/03/10 07:39:11;;;;;;;33.53;13.07;;;;;;;;;;4999669;28;20467;-77
2022/03/10 07:41:38;;;;;;;36.13;13.57;;;;;;;;;;4994772;28;20213;-76
2022/03/10 07:44:06;;;;;;;30.27;13.17;;;;;;;;;;5002045;28;20231;-78
2022/03/10 07:46:33;;;;;;;34.43;13.07;;;;;;;;;;5001579;28;20766;-78
2022/03/10 07:49:02;;;;;;;32.00;13.00;;;;;;;;;;5003353;28;20215;-79
2022/03/10 07:51:29;;;;;;;28.03;12.20;;;;;;;;;;4999816;28;20645;-77
2022/03/10 07:53:56;;;;;;;24.07;11.60;;;;;;;;;;4999419;28;20237;-77
2022/03/10 07:56:23;;;;;;;21.40;10.03;;;;;;;;;;5000907;28;20228;-77
2022/03/10 07:58:51;;;;;;;20.80;10.40;;;;;;;;;;4999885;28;20204;-76
2022/03/10 08:01:18;;;;;;;20.97;10.73;;;;;;;;;;4992872;28;20433;-79
2022/03/10 08:03:47;;;;;;;34.60;15.10;;;;;;;;;;5000746;28;20234;-76
2022/03/10 08:06:15;;;;;;;30.57;13.57;;;;;;;;;;4990066;28;20212;-76
2022/03/10 08:08:43;;;;;;;39.10;15.07;;;;;;;;;;4999582;28;20224;-79
2022/03/10 08:11:20;;;;;;;33.70;13.87;;;;;;;;;;4999918;28;20371;-78
2022/03/10 08:13:47;;;;;;;40.47;13.37;;;;;;;;;;4999279;28;20611;-76
2022/03/10 08:16:14;;;;;;;24.07;12.07;;;;;;;;;;4998864;28;20216;-76
2022/03/10 08:18:42;;;;;;;31.90;13.33;;;;;;;;;;4997318;28;20200;-78
2022/03/10 08:21:09;;;;;;;26.93;12.50;;;;;;;;;;4995438;28;20219;-76
2022/03/10 08:23:37;;;;;;;24.63;12.13;;;;;;;;;;5002994;28;20596;-78
2022/03/10 08:26:05;;;;;;;28.33;12.97;;;;;;;;;;5003184;28;20239;-78
2022/03/10 08:28:33;;;;;;;23.67;11.83;;;;;;;;;;5003890;28;21296;-78
2022/03/10 08:31:01;;;;;;;24.30;12.90;;;;;;;;;;5001938;28;20203;-77
2022/03/10 08:33:29;;;;;;;25.20;12.17;;;;;;;;;;4999746;28;20232;-78
2022/03/10 08:35:56;;;;;;;24.67;12.43;;;;;;;;;;5005080;28;20231;-78
2022/03/10 08:38:23;;;;;;;27.07;13.67;;;;;;;;;;5003578;28;20403;-77
2022/03/10 08:40:52;;;;;;;30.17;14.83;;;;;;;;;;5001382;28;20652;-78
2022/03/10 08:43:22;;;;;;;32.67;14.40;;;;;;;;;;5002131;28;20329;-79
2022/03/10 08:45:49;;;;;;;28.87;13.30;;;;;;;;;;5001272;28;20639;-78
2022/03/10 08:48:16;;;;;;;26.60;13.60;;;;;;;;;;5001369;28;20216;-79
2022/03/10 08:50:43;;;;;;;37.10;14.10;;;;;;;;;;5008669;28;20201;-78
2022/03/10 08:53:10;;;;;;;27.50;12.77;;;;;;;;;;5002454;28;20260;-77
2022/03/10 08:55:38;;;;;;;25.17;12.90;;;;;;;;;;5004865;28;20220;-79
2022/03/10 08:58:06;;;;;;;30.53;13.33;;;;;;;;;;5004623;28;20227;-77
2022/03/10 09:00:33;;;;;;;29.70;13.43;;;;;;;;;;5001194;28;20204;-79
2022/03/10 09:03:01;;;;;;;27.27;13.53;;;;;;;;;;4998375;28;20295;-78
2022/03/10 09:05:28;;;;;;;27.03;14.20;;;;;;;;;;5001209;28;20288;-77
2022/03/10 09:07:55;;;;;;;29.17;14.10;;;;;;;;;;5001450;28;20296;-77
2022/03/10 09:10:22;;;;;;;31.73;13.60;;;;;;;;;;4997422;28;20225;-78
2022/03/10 09:12:49;;;;;;;34.67;13.73;;;;;;;;;;5007184;28;20274;-80
2022/03/10 09:15:18;;;;;;;27.97;12.83;;;;;;;;;;5003522;28;20307;-80
2022/03/10 09:17:48;;;;;;;30.80;14.20;;;;;;;;;;5001878;28;20216;-79
2022/03/10 09:20:18;;;;;;;34.03;13.63;;;;;;;;;;5002567;28;20235;-79
2022/03/10 09:22:46;;;;;;;30.80;13.83;;;;;;;;;;5001999;28;20285;-79
2022/03/10 09:25:13;;;;;;;39.07;15.10;;;;;;;;;;5001181;28;20216;-79
2022/03/10 09:27:41;;;;;;;32.60;12.70;;;;;;;;;;5003044;28;20205;-79
2022/03/10 09:30:09;;;;;;;29.37;12.83;;;;;;;;;;5004689;28;20203;-80
2022/03/10 09:32:38;;;;;;;32.83;12.83;;;;;;;;;;5002790;28;20227;-80
2022/03/10 09:35:07;;;;;;;27.17;12.17;;;;;;;;;;4998611;28;20296;-80
2022/03/10 09:37:34;;;;;;;31.33;12.63;;;;;;;;;;5004973;28;20312;-80
2022/03/10 09:40:01;;;;;;;22.37;11.00;;;;;;;;;;5011274;28;20228;-78
2022/03/10 09:42:29;;;;;;;25.40;11.33;;;;;;;;;;5004250;28;20268;-80
2022/03/10 09:44:58;;;;;;;27.90;12.57;;;;;;;;;;5003190;28;20200;-80
2022/03/10 09:47:25;;;;;;;25.47;11.63;;;;;;;;;;5008114;28;20211;-79
2022/03/10 09:49:54;;;;;;;29.40;11.53;;;;;;;;;;5005637;28;21838;-80
2022/03/10 09:52:23;;;;;;;26.83;10.50;;;;;;;;;;5003067;28;20208;-79
2022/03/10 09:54:50;;;;;;;18.10;9.87;;;;;;;;;;5002562;28;20655;-78
2022/03/10 09:57:18;;;;;;;25.57;10.07;;;;;;;;;;5002327;28;20220;-80
2022/03/10 09:59:54;;;;;;;19.53;9.53;;;;;;;;;;5005028;28;20208;-79
2022/03/10 10:02:22;;;;;;;20.47;9.43;;;;;;;;;;4994203;28;20200;-78
2022/03/10 10:04:49;;;;;;;23.53;9.53;;;;;;;;;;4996311;28;20213;-79
2022/03/10 10:07:21;;;;;;;20.53;9.67;;;;;;;;;;4997520;28;20213;-79
2022/03/10 10:09:51;;;;;;;20.27;9.10;;;;;;;;;;4996418;28;20205;-79
2022/03/10 10:12:22;;;;;;;21.17;9.90;;;;;;;;;;5005432;28;20272;-78
2022/03/10 10:14:49;;;;;;;20.87;9.50;;;;;;;;;;5010003;28;20209;-77
2022/03/10 10:17:17;;;;;;;20.43;9.40;;;;;;;;;;5012892;28;20239;-77
2022/03/10 10:19:45;;;;;;;20.97;9.83;;;;;;;;;;5014881;28;20212;-77
2022/03/10 10:22:13;;;;;;;19.60;9.60;;;;;;;;;;5016472;28;20208;-77
2022/03/10 10:24:49;;;;;;;22.10;9.63;;;;;;;;;;5007520;28;20303;-77
2022/03/10 10:27:17;;;;;;;16.63;8.90;;;;;;;;;;5011739;28;20203;-79
2022/03/10 10:29:48;;;;;;;20.33;10.00;;;;;;;;;;5010410;28;20291;-78
2022/03/10 10:32:25;;;;;;;19.93;9.97;;;;;;;;;;5011000;28;20594;-78
2022/03/10 10:34:59;;;;;;;17.47;9.53;;;;;;;;;;5022723;22;20429;-78
2022/03/10 10:37:26;;;;;;;23.73;9.53;;;;;;;;;;5018634;28;20238;-77
2022/03/10 10:39:56;;;;;;;18.90;9.57;;;;;;;;;;5018752;28;20202;-79
2022/03/10 10:42:26;;;;;;;22.67;9.77;;;;;;;;;;5019575;28;20590;-78
2022/03/10 10:44:54;;;;;;;18.10;9.00;;;;;;;;;;5019229;28;20741;-78
2022/03/10 10:47:21;;;;;;;22.40;10.07;;;;;;;;;;5018802;28;20200;-79
2022/03/10 10:49:57;;;;;;;16.93;9.33;;;;;;;;;;5021151;28;20206;-77
2022/03/10 10:52:24;;;;;;;18.40;9.80;;;;;;;;;;5020395;28;20211;-78
2022/03/10 10:55:05;;;;;;;19.07;9.30;;;;;;;;;;5017825;28;20605;-79
2022/03/10 10:57:35;;;;;;;19.63;8.93;;;;;;;;;;5014950;28;20706;-77
2022/03/10 11:00:10;;;;;;;19.60;9.47;;;;;;;;;;5016116;28;20214;-78
2022/03/10 11:02:39;;;;;;;17.40;8.63;;;;;;;;;;5017347;28;20243;-78
2022/03/10 11:05:09;;;;;;;17.90;9.20;;;;;;;;;;5020208;28;20204;-78
2022/03/10 11:07:37;;;;;;;16.07;8.90;;;;;;;;;;5018422;28;20204;-78
2022/03/10 11:10:07;;;;;;;17.17;8.43;;;;;;;;;;5016241;28;20756;-76
2022/03/10 11:12:37;;;;;;;18.47;8.90;;;;;;;;;;5014305;28;20224;-76
2022/03/10 11:15:06;;;;;;;16.17;8.50;;;;;;;;;;5016959;28;20245;-78
2022/03/10 11:17:34;;;;;;;19.07;8.93;;;;;;;;;;5017232;28;20227;-78
2022/03/10 11:20:02;;;;;;;16.30;8.63;;;;;;;;;;5018082;28;20200;-77
2022/03/10 11:22:32;;;;;;;17.73;9.13;;;;;;;;;;5019386;28;20200;-78
2022/03/10 11:25:17;;;;;;;18.10;9.37;;;;;;;;;;5016654;28;20230;-78
2022/03/10 11:27:46;;;;;;;18.30;8.90;;;;;;;;;;5019283;28;20306;-77
2022/03/10 11:30:13;;;;;;;16.70;8.77;;;;;;;;;;5017985;28;20299;-77
2022/03/10 11:32:40;;;;;;;16.13;8.47;;;;;;;;;;5017928;28;20257;-78
2022/03/10 11:35:08;;;;;;;20.97;8.70;;;;;;;;;;5017626;28;20677;-77
2022/03/10 11:37:36;;;;;;;16.37;8.30;;;;;;;;;;5017521;28;20221;-78
2022/03/10 11:40:05;;;;;;;24.30;10.10;;;;;;;;;;5018901;28;20203;-77
2022/03/10 11:42:34;;;;;;;20.00;9.53;;;;;;;;;;5021786;28;20520;-78
2022/03/10 11:45:08;;;;;;;15.67;8.33;;;;;;;;;;5018380;28;20203;-79
2022/03/10 11:47:36;;;;;;;16.33;7.90;;;;;;;;;;5017888;28;20729;-78
2022/03/10 11:50:21;;;;;;;15.47;7.80;;;;;;;;;;5015394;28;20200;-78
2022/03/10 11:52:52;;;;;;;17.93;7.60;;;;;;;;;;5007271;28;20216;-78
2022/03/10 11:55:19;;;;;;;16.50;8.10;;;;;;;;;;5015618;28;20200;-78
2022/03/10 11:58:04;;;;;;;18.13;7.80;;;;;;;;;;5016636;28;20332;-77
2022/03/10 12:03:29;;;;;;;16.20;7.33;;;;;;;;;;5024917;28;20740;-78
2022/03/10 12:05:58;;;;;;;12.83;7.07;;;;;;;;;;5020659;28;20203;-78
2022/03/10 12:08:26;;;;;;;12.23;6.70;;;;;;;;;;5029017;28;20490;-78
2022/03/10 12:10:54;;;;;;;11.93;6.57;;;;;;;;;;5018101;28;20235;-76
2022/03/10 12:13:39;;;;;;;12.27;6.40;;;;;;;;;;5017346;28;20227;-78
2022/03/10 12:16:08;;;;;;;16.87;6.63;;;;;;;;;;5017328;28;20209;-77
2022/03/10 12:18:43;;;;;;;13.30;7.00;;;;;;;;;;5017866;28;20207;-77
2022/03/10 12:21:31;;;;;;;15.37;7.57;;;;;;;;;;5012157;28;20232;-77
2022/03/10 12:23:59;;;;;;;15.60;7.47;;;;;;;;;;4990758;28;20305;-76
2022/03/10 12:26:27;;;;;;;15.07;6.97;;;;;;;;;;5017606;28;20576;-77
2022/03/10 12:28:55;;;;;;;18.63;7.90;;;;;;;;;;5017442;28;20649;-77
2022/03/10 12:31:27;;;;;;;17.03;7.90;;;;;;;;;;5016050;28;20206;-78
2022/03/10 12:33:55;;;;;;;14.03;7.17;;;;;;;;;;5016810;28;20727;-79
2022/03/10 12:36:27;;;;;;;15.37;7.33;;;;;;;;;;5016675;28;20306;-77
2022/03/10 12:38:54;;;;;;;16.17;7.20;;;;;;;;;;5017978;28;20311;-77
2022/03/10 12:41:21;;;;;;;15.03;7.13;;;;;;;;;;5020267;28;20287;-79
2022/03/10 12:43:54;;;;;;;13.27;6.70;;;;;;;;;;5019829;28;20270;-77
2022/03/10 12:46:21;;;;;;;14.27;6.33;;;;;;;;;;5021627;28;22416;-77
2022/03/10 12:48:58;;;;;;;12.43;6.07;;;;;;;;;;5020901;28;20206;-77
2022/03/10 12:51:27;;;;;;;12.80;6.07;;;;;;;;;;5022504;28;20203;-80
2022/03/10 12:53:54;;;;;;;13.80;5.57;;;;;;;;;;5020428;28;20231;-78
2022/03/10 12:56:21;;;;;;;17.57;5.90;;;;;;;;;;5019988;28;20203;-76
2022/03/10 12:58:54;;;;;;;12.47;6.03;;;;;;;;;;5019539;28;20530;-77
2022/03/10 13:01:23;;;;;;;12.03;6.07;;;;;;;;;;5025180;28;20290;-76
2022/03/10 13:03:52;;;;;;;13.13;5.63;;;;;;;;;;5018928;28;20669;-78
2022/03/10 13:06:21;;;;;;;9.83;4.90;;;;;;;;;;5018741;28;20693;-76
2022/03/10 13:08:53;;;;;;;8.97;5.03;;;;;;;;;;5018487;28;20211;-78
2022/03/10 13:11:20;;;;;;;9.43;5.27;;;;;;;;;;5021031;28;20656;-76
2022/03/10 13:13:48;;;;;;;12.17;5.33;;;;;;;;;;5019985;28;20588;-77
2022/03/10 13:16:15;;;;;;;12.63;6.23;;;;;;;;;;5022992;28;20207;-77
2022/03/10 13:18:43;;;;;;;17.90;5.90;;;;;;;;;;5021583;28;20737;-78
2022/03/10 13:21:12;;;;;;;10.60;5.43;;;;;;;;;;5021800;28;20294;-78
2022/03/10 13:23:39;;;;;;;9.80;5.33;;;;;;;;;;5018270;28;20549;-78
2022/03/10 13:26:08;;;;;;;9.90;5.13;;;;;;;;;;5020425;28;20208;-77
2022/03/10 13:28:35;;;;;;;9.13;4.90;;;;;;;;;;5022983;28;20215;-78
2022/03/10 13:31:06;;;;;;;10.77;5.27;;;;;;;;;;5024019;28;20235;-78
2022/03/10 13:33:38;;;;;;;9.20;4.83;;;;;;;;;;5025565;28;20733;-79
2022/03/10 13:36:06;;;;;;;8.97;4.90;;;;;;;;;;5023415;28;20222;-78
2022/03/10 13:38:35;;;;;;;9.30;5.03;;;;;;;;;;5021560;28;20311;-78
2022/03/10 13:41:05;;;;;;;12.57;5.27;;;;;;;;;;5021969;28;20290;-77
2022/03/10 13:43:34;;;;;;;15.90;5.80;;;;;;;;;;5022654;28;20244;-77
2022/03/10 13:46:11;;;;;;;9.53;5.50;;;;;;;;;;5024465;28;20235;-77
2022/03/10 13:48:45;;;;;;;10.90;5.37;;;;;;;;;;5020469;28;20235;-77
2022/03/10 13:51:13;;;;;;;10.07;5.33;;;;;;;;;;5024725;28;20204;-78
2022/03/10 13:53:53;;;;;;;10.07;5.33;;;;;;;;;;5027169;28;20227;-77
2022/03/10 13:56:28;;;;;;;10.43;5.40;;;;;;;;;;5019261;28;20212;-77
2022/03/10 13:58:55;;;;;;;12.17;5.80;;;;;;;;;;5023567;28;20224;-78
2022/03/10 14:01:25;;;;;;;9.47;5.23;;;;;;;;;;5024405;28;20273;-77
2022/03/10 14:03:54;;;;;;;10.30;5.77;;;;;;;;;;5019936;28;20251;-77
2022/03/10 14:06:21;;;;;;;10.47;4.83;;;;;;;;;;5019399;28;20232;-77
2022/03/10 14:08:52;;;;;;;10.93;5.67;;;;;;;;;;5023683;28;20208;-78
2022/03/10 14:11:19;;;;;;;9.53;5.33;;;;;;;;;;5024278;28;20231;-76
2022/03/10 14:13:48;;;;;;;10.07;5.50;;;;;;;;;;5020590;28;20220;-76
2022/03/10 14:16:15;;;;;;;18.47;5.83;;;;;;;;;;5026891;28;20199;-76
2022/03/10 14:18:45;;;;;;;13.13;6.60;;;;;;;;;;5025710;28;20723;-76
2022/03/10 14:21:12;;;;;;;12.10;5.70;;;;;;;;;;5031391;28;20207;-77
2022/03/10 14:23:40;;;;;;;13.20;6.33;;;;;;;;;;5027494;28;20225;-79
2022/03/10 14:26:12;;;;;;;11.80;5.80;;;;;;;;;;5029240;28;20203;-76
2022/03/10 14:28:40;;;;;;;10.43;5.57;;;;;;;;;;5021834;28;20242;-79
2022/03/10 14:31:08;;;;;;;16.07;6.00;;;;;;;;;;5029415;28;20204;-77
2022/03/10 14:33:39;;;;;;;10.57;5.80;;;;;;;;;;5029191;28;20411;-78
2022/03/10 14:36:07;;;;;;;16.63;5.87;;;;;;;;;;5026268;28;20310;-78
2022/03/10 14:38:34;;;;;;;10.13;5.00;;;;;;;;;;5026623;28;20278;-79
2022/03/10 14:41:01;;;;;;;12.77;5.67;;;;;;;;;;5023628;28;20291;-78